createdAt,value
2018-02-24T00:00:03.964Z,67.97
2018-02-24T00:02:06.423Z,67.59
2018-02-24T00:04:08.910Z,67.82
2018-02-24T00:06:11.473Z,67.85
2018-02-24T00:08:13.968Z,67.30
2018-02-24T00:10:16.468Z,67.38
2018-02-24T00:12:18.928Z,67.15
2018-02-24T00:14:21.469Z,67.69
2018-02-24T00:16:23.933Z,68.14
2018-02-24T00:18:26.447Z,68.23
2018-02-24T00:20:28.948Z,68.02
2018-02-24T00:22:37.227Z,68.36
2018-02-24T00:24:39.820Z,68.28
2018-02-24T00:26:42.297Z,68.58
2018-02-24T00:28:44.762Z,68.92
2018-02-24T00:30:47.298Z,69.14
2018-02-24T00:32:49.769Z,69.38
2018-02-24T00:34:52.292Z,69.55
2018-02-24T00:36:54.894Z,70.07
2018-02-24T00:38:57.349Z,70.35
2018-02-24T00:40:59.794Z,69.81
2018-02-24T00:43:02.265Z,69.88
2018-02-24T00:45:04.833Z,69.85
2018-02-24T00:47:07.448Z,70.28
2018-02-24T00:49:09.906Z,70.47
2018-02-24T00:51:12.357Z,70.68
2018-02-24T00:53:14.872Z,70.35
2018-02-24T00:55:17.322Z,70.34
2018-02-24T00:57:19.767Z,70.58
2018-02-24T00:59:22.253Z,70.32
2018-02-24T01:01:24.709Z,69.73
2018-02-24T01:03:27.205Z,70.07
2018-02-24T01:05:29.783Z,69.26
2018-02-24T01:07:32.278Z,69.79
2018-02-24T01:09:34.775Z,69.26
2018-02-24T01:11:37.362Z,69.90
2018-02-24T01:13:39.858Z,70.19
2018-02-24T01:15:42.289Z,69.90
2018-02-24T01:17:44.844Z,70.09
2018-02-24T01:19:47.318Z,69.02
2018-02-24T01:21:49.794Z,69.78
2018-02-24T01:23:52.324Z,69.89
2018-02-24T01:25:54.823Z,69.74
2018-02-24T01:27:57.300Z,69.40
2018-02-24T01:29:59.903Z,69.74
2018-02-24T01:32:02.353Z,69.53
2018-02-24T01:34:04.885Z,69.81
2018-02-24T01:36:07.362Z,69.62
2018-02-24T01:38:09.815Z,69.65
2018-02-24T01:40:12.392Z,69.76
2018-02-24T01:42:14.933Z,69.57
2018-02-24T01:44:17.501Z,69.45
2018-02-24T01:46:19.950Z,69.09
2018-02-24T01:48:22.429Z,69.00
2018-02-24T01:50:24.913Z,68.97
2018-02-24T01:52:27.398Z,68.47
2018-02-24T01:54:29.927Z,68.94
2018-02-24T01:56:32.513Z,69.06
2018-02-24T01:58:34.966Z,69.54
2018-02-24T02:00:37.515Z,69.52
2018-02-24T02:02:40.076Z,69.72
2018-02-24T02:04:42.508Z,69.92
2018-02-24T02:06:45.037Z,70.28
2018-02-24T02:08:47.508Z,70.44
2018-02-24T02:10:50.076Z,70.28
2018-02-24T02:12:52.580Z,70.39
2018-02-24T02:14:55.159Z,70.92
2018-02-24T02:16:57.658Z,70.68
2018-02-24T02:19:00.167Z,70.50
2018-02-24T02:21:02.883Z,70.64
2018-02-24T02:23:05.395Z,70.98
2018-02-24T02:25:07.878Z,70.97
2018-02-24T02:27:10.429Z,70.04
2018-02-24T02:29:12.884Z,70.42
2018-02-24T02:31:15.391Z,70.84
2018-02-24T02:33:17.869Z,70.81
2018-02-24T02:35:20.348Z,70.58
2018-02-24T02:37:22.849Z,70.30
2018-02-24T02:39:25.346Z,70.83
2018-02-24T02:41:27.816Z,71.67
2018-02-24T02:43:30.366Z,71.87
2018-02-24T02:45:32.842Z,72.17
2018-02-24T02:47:35.361Z,72.28
2018-02-24T02:49:37.859Z,71.59
2018-02-24T02:51:40.341Z,71.83
2018-02-24T02:53:42.839Z,72.22
2018-02-24T02:55:45.409Z,71.96
2018-02-24T02:57:47.866Z,72.08
2018-02-24T02:59:50.368Z,72.19
2018-02-24T03:01:52.914Z,71.90
2018-02-24T03:03:55.411Z,72.61
2018-02-24T03:05:57.860Z,71.88
2018-02-24T03:08:00.389Z,70.83
2018-02-24T03:10:02.858Z,71.17
2018-02-24T03:12:05.375Z,71.32
2018-02-24T03:14:07.843Z,71.37
2018-02-24T03:16:10.300Z,71.35
2018-02-24T03:18:12.785Z,71.71
2018-02-24T03:20:15.347Z,71.68
2018-02-24T03:22:17.875Z,71.77
2018-02-24T03:24:20.335Z,71.77
2018-02-24T03:26:22.771Z,71.79
2018-02-24T03:28:25.205Z,71.95
2018-02-24T03:30:28.570Z,72.11
2018-02-24T03:32:31.125Z,72.11
2018-02-24T03:34:33.556Z,72.06
2018-02-24T03:36:36.081Z,72.13
2018-02-24T03:38:38.505Z,71.75
2018-02-24T03:40:40.980Z,71.42
2018-02-24T03:42:43.431Z,71.47
2018-02-24T03:44:45.989Z,72.03
2018-02-24T03:46:48.434Z,72.19
2018-02-24T03:48:50.930Z,71.97
2018-02-24T03:50:53.396Z,71.48
2018-02-24T03:52:55.963Z,72.36
2018-02-24T03:54:58.436Z,72.73
2018-02-24T03:57:00.942Z,72.58
2018-02-24T03:59:03.410Z,72.83
2018-02-24T04:01:05.869Z,73.13
2018-02-24T04:03:08.402Z,73.33
2018-02-24T04:05:10.889Z,72.99
2018-02-24T04:07:13.344Z,73.69
2018-02-24T04:09:15.825Z,73.17
2018-02-24T04:11:18.275Z,73.15
2018-02-24T04:13:20.745Z,73.25
2018-02-24T04:15:23.211Z,72.99
2018-02-24T04:17:25.686Z,72.84
2018-02-24T04:19:28.264Z,73.06
2018-02-24T04:21:30.710Z,73.21
2018-02-24T04:23:33.239Z,73.94
2018-02-24T04:25:35.715Z,74.44
2018-02-24T04:27:38.191Z,74.80
2018-02-24T04:29:40.622Z,74.90
2018-02-24T04:31:43.107Z,74.42
2018-02-24T04:33:45.541Z,74.09
2018-02-24T04:35:47.992Z,73.57
2018-02-24T04:37:50.637Z,73.90
2018-02-24T04:39:53.080Z,73.57
2018-02-24T04:41:55.567Z,73.61
2018-02-24T04:43:58.076Z,74.23
2018-02-24T04:46:00.515Z,74.01
2018-02-24T04:48:02.995Z,74.19
2018-02-24T04:50:05.451Z,74.49
2018-02-24T04:52:07.996Z,74.09
2018-02-24T04:54:10.560Z,74.62
2018-02-24T04:56:13.044Z,74.41
2018-02-24T04:58:15.628Z,75.01
2018-02-24T05:00:18.435Z,74.99
2018-02-24T05:02:20.908Z,75.50
2018-02-24T05:04:23.402Z,75.63
2018-02-24T05:06:25.897Z,75.39
2018-02-24T05:08:28.405Z,75.56
2018-02-24T05:10:30.913Z,76.05
2018-02-24T05:12:33.446Z,76.08
2018-02-24T05:14:35.911Z,75.84
2018-02-24T05:16:38.480Z,76.28
2018-02-24T05:18:40.966Z,75.76
2018-02-24T05:20:43.454Z,76.29
2018-02-24T05:22:45.927Z,76.98
2018-02-24T05:24:48.350Z,77.29
2018-02-24T05:26:50.821Z,77.34
2018-02-24T05:28:53.332Z,76.92
2018-02-24T05:30:55.860Z,77.20
2018-02-24T05:32:58.321Z,77.08
2018-02-24T05:35:00.766Z,76.34
2018-02-24T05:37:03.706Z,76.10
2018-02-24T05:39:06.237Z,75.87
2018-02-24T05:41:08.711Z,75.90
2018-02-24T05:43:11.193Z,76.23
2018-02-24T05:45:13.653Z,76.74
2018-02-24T05:47:16.097Z,76.60
2018-02-24T05:49:18.582Z,76.67
2018-02-24T05:51:21.067Z,76.57
2018-02-24T05:53:23.557Z,76.29
2018-02-24T05:55:25.993Z,76.16
2018-02-24T05:57:28.479Z,76.29
2018-02-24T05:59:31.046Z,76.34
2018-02-24T06:01:33.537Z,76.16
2018-02-24T06:03:36.072Z,76.61
2018-02-24T06:05:38.584Z,76.73
2018-02-24T06:07:41.084Z,76.73
2018-02-24T06:09:43.607Z,76.72
2018-02-24T06:11:46.197Z,76.80
2018-02-24T06:13:48.637Z,76.62
2018-02-24T06:15:51.182Z,76.37
2018-02-24T06:17:53.637Z,75.99
2018-02-24T06:19:56.141Z,75.71
2018-02-24T06:21:58.626Z,75.29
2018-02-24T06:24:01.169Z,74.99
2018-02-24T06:26:03.756Z,74.39
2018-02-24T06:28:06.252Z,73.94
2018-02-24T06:30:08.735Z,74.22
2018-02-24T06:32:11.196Z,74.14
2018-02-24T06:34:13.703Z,73.86
2018-02-24T06:36:16.135Z,74.57
2018-02-24T06:38:18.658Z,74.24
2018-02-24T06:40:21.112Z,75.28
2018-02-24T06:42:23.601Z,74.92
2018-02-24T06:44:26.094Z,75.05
2018-02-24T06:46:28.523Z,75.40
2018-02-24T06:48:30.972Z,75.45
2018-02-24T06:50:33.463Z,75.21
2018-02-24T06:52:35.943Z,74.57
2018-02-24T06:54:38.392Z,74.03
2018-02-24T06:56:40.957Z,73.32
2018-02-24T06:58:43.467Z,72.36
2018-02-24T07:00:46.154Z,72.42
2018-02-24T07:02:48.604Z,71.77
2018-02-24T07:04:51.174Z,72.31
2018-02-24T07:06:53.661Z,71.87
2018-02-24T07:08:56.157Z,72.40
2018-02-24T07:10:58.691Z,72.69
2018-02-24T07:13:01.164Z,72.34
2018-02-24T07:15:03.650Z,72.42
2018-02-24T07:17:06.264Z,71.38
2018-02-24T07:19:08.743Z,69.24
2018-02-24T07:21:11.250Z,68.26
2018-02-24T07:23:13.734Z,68.20
2018-02-24T07:25:16.284Z,68.42
2018-02-24T07:27:18.762Z,67.31
2018-02-24T07:29:21.235Z,66.40
2018-02-24T07:31:23.667Z,65.68
2018-02-24T07:33:26.157Z,65.47
2018-02-24T07:35:28.605Z,64.45
2018-02-24T07:37:31.150Z,65.39
2018-02-24T07:39:33.628Z,63.29
2018-02-24T07:41:36.138Z,64.86
2018-02-24T07:43:38.602Z,63.77
2018-02-24T07:45:41.188Z,64.46
2018-02-24T07:47:43.680Z,64.76
2018-02-24T07:49:46.160Z,64.66
2018-02-24T07:51:48.595Z,64.54
2018-02-24T07:53:51.070Z,64.45
2018-02-24T07:55:53.554Z,64.66
2018-02-24T07:57:56.045Z,65.69
2018-02-24T07:59:58.644Z,65.08
2018-02-24T08:02:01.105Z,65.21
2018-02-24T08:04:03.630Z,64.97
2018-02-24T08:06:06.102Z,66.80
2018-02-24T08:08:08.717Z,66.14
2018-02-24T08:10:11.277Z,67.02
2018-02-24T08:12:13.787Z,67.48
2018-02-24T08:14:16.229Z,66.82
2018-02-24T08:16:18.704Z,67.78
2018-02-24T08:18:21.203Z,67.08
2018-02-24T08:20:23.676Z,67.30
2018-02-24T08:22:26.142Z,68.29
2018-02-24T08:24:28.638Z,67.11
2018-02-24T08:26:31.133Z,66.85
2018-02-24T08:28:33.643Z,66.84
2018-02-24T08:30:36.110Z,64.60
2018-02-24T08:32:38.582Z,65.04
2018-02-24T08:34:41.083Z,64.43
2018-02-24T08:36:43.559Z,64.99
2018-02-24T08:38:46.208Z,63.93
2018-02-24T08:40:48.715Z,64.86
2018-02-24T08:42:51.303Z,64.27
2018-02-24T08:44:53.873Z,65.16
2018-02-24T08:46:56.290Z,64.49
2018-02-24T08:48:58.779Z,64.85
2018-02-24T08:51:01.250Z,63.89
2018-02-24T08:53:03.763Z,63.98
2018-02-24T08:55:06.326Z,64.03
2018-02-24T08:57:08.789Z,64.92
2018-02-24T08:59:11.274Z,65.73
2018-02-24T09:01:13.729Z,65.98
2018-02-24T09:03:16.235Z,66.50
2018-02-24T09:05:18.724Z,65.66
2018-02-24T09:07:21.188Z,66.22
2018-02-24T09:09:23.692Z,66.10
2018-02-24T09:11:26.173Z,67.06
2018-02-24T09:13:28.688Z,67.51
2018-02-24T09:15:31.160Z,67.55
2018-02-24T09:17:33.780Z,66.91
2018-02-24T09:19:36.283Z,67.59
2018-02-24T09:21:38.750Z,67.77
2018-02-24T09:23:41.250Z,68.09
2018-02-24T09:25:43.765Z,68.28
2018-02-24T09:27:46.219Z,69.53
2018-02-24T09:29:48.784Z,70.07
2018-02-24T09:31:51.251Z,70.56
2018-02-24T09:33:53.738Z,70.19
2018-02-24T09:35:56.324Z,71.13
2018-02-24T09:37:58.812Z,71.69
2018-02-24T09:40:01.275Z,71.56
2018-02-24T09:42:03.795Z,72.22
2018-02-24T09:44:06.394Z,71.99
2018-02-24T09:46:08.864Z,72.32
2018-02-24T09:48:11.339Z,72.30
2018-02-24T09:50:13.858Z,72.05
2018-02-24T09:52:16.335Z,72.29
2018-02-24T09:54:18.890Z,72.18
2018-02-24T09:56:21.380Z,71.87
2018-02-24T09:58:24.540Z,72.17
2018-02-24T10:00:27.018Z,72.51
2018-02-24T10:02:29.514Z,71.57
2018-02-24T10:04:31.987Z,72.23
2018-02-24T10:06:34.465Z,71.26
2018-02-24T10:08:36.997Z,71.87
2018-02-24T10:10:39.468Z,71.80
2018-02-24T10:12:41.984Z,72.01
2018-02-24T10:14:44.505Z,71.96
2018-02-24T10:16:46.970Z,71.92
2018-02-24T10:18:49.477Z,72.01
2018-02-24T10:20:52.029Z,71.64
2018-02-24T10:22:54.464Z,71.84
2018-02-24T10:24:56.974Z,71.67
2018-02-24T10:26:59.396Z,71.96
2018-02-24T10:29:01.928Z,71.64
2018-02-24T10:31:04.394Z,69.88
2018-02-24T10:33:06.869Z,71.04
2018-02-24T10:35:09.356Z,71.11
2018-02-24T10:37:11.836Z,70.42
2018-02-24T10:39:14.404Z,69.48
2018-02-24T10:41:16.929Z,68.26
2018-02-24T10:43:19.390Z,68.55
2018-02-24T10:45:21.927Z,68.84
2018-02-24T10:47:24.483Z,66.64
2018-02-24T10:49:26.981Z,67.46
2018-02-24T10:51:29.524Z,67.38
2018-02-24T10:53:31.966Z,66.88
2018-02-24T10:55:34.427Z,68.21
2018-02-24T10:57:36.912Z,68.23
2018-02-24T10:59:39.392Z,67.99
2018-02-24T11:01:41.906Z,66.74
2018-02-24T11:03:44.369Z,67.81
2018-02-24T11:05:46.843Z,65.18
2018-02-24T11:07:49.331Z,65.79
2018-02-24T11:09:51.826Z,65.33
2018-02-24T11:11:54.346Z,65.69
2018-02-24T11:13:56.861Z,65.46
2018-02-24T11:15:59.327Z,65.61
2018-02-24T11:18:01.804Z,65.24
2018-02-24T11:20:04.345Z,65.98
2018-02-24T11:22:06.845Z,64.34
2018-02-24T11:24:09.488Z,65.00
2018-02-24T11:26:12.041Z,65.66
2018-02-24T11:28:14.506Z,65.95
2018-02-24T11:30:16.986Z,66.67
2018-02-24T11:32:19.478Z,66.43
2018-02-24T11:34:21.943Z,66.47
2018-02-24T11:36:24.557Z,66.23
2018-02-24T11:38:27.047Z,64.48
2018-02-24T11:40:29.536Z,65.69
2018-02-24T11:42:31.997Z,65.89
2018-02-24T11:44:34.526Z,65.43
2018-02-24T11:46:37.044Z,66.27
2018-02-24T11:48:39.550Z,66.20
2018-02-24T11:50:42.008Z,66.68
2018-02-24T11:52:44.485Z,64.34
2018-02-24T11:54:47.082Z,63.79
2018-02-24T11:56:49.562Z,64.33
2018-02-24T11:58:52.138Z,65.17
2018-02-24T12:00:54.617Z,64.73
2018-02-24T12:02:57.131Z,65.17
2018-02-24T12:04:59.688Z,63.69
2018-02-24T12:07:02.202Z,62.97
2018-02-24T12:09:04.667Z,63.82
2018-02-24T12:11:07.131Z,62.81
2018-02-24T12:13:09.633Z,63.00
2018-02-24T12:15:12.125Z,62.57
2018-02-24T12:17:14.711Z,62.66
2018-02-24T12:19:17.268Z,61.94
2018-02-24T12:21:19.747Z,61.31
2018-02-24T12:23:22.242Z,61.12
2018-02-24T12:25:24.781Z,60.42
2018-02-24T12:27:27.278Z,59.80
2018-02-24T12:29:29.772Z,61.15
2018-02-24T12:31:32.278Z,61.57
2018-02-24T12:33:34.757Z,61.34
2018-02-24T12:35:37.216Z,62.38
2018-02-24T12:37:39.695Z,63.32
2018-02-24T12:39:42.141Z,62.41
2018-02-24T12:41:44.596Z,61.89
2018-02-24T12:43:47.108Z,60.99
2018-02-24T12:45:49.556Z,61.00
2018-02-24T12:47:52.112Z,58.05
2018-02-24T12:49:54.580Z,59.66
2018-02-24T12:51:57.088Z,59.51
2018-02-24T12:53:59.593Z,59.77
2018-02-24T12:56:02.083Z,59.86
2018-02-24T12:58:04.554Z,58.79
2018-02-24T13:00:07.151Z,54.01
2018-02-24T13:02:09.649Z,52.41
2018-02-24T13:04:12.118Z,55.37
2018-02-24T13:06:14.600Z,56.09
2018-02-24T13:08:17.160Z,55.83
2018-02-24T13:10:19.642Z,56.52
2018-02-24T13:12:22.161Z,52.57
2018-02-24T13:14:24.668Z,52.72
2018-02-24T13:16:27.143Z,53.21
2018-02-24T13:18:29.639Z,53.67
2018-02-24T13:20:32.176Z,54.05
2018-02-24T13:22:34.677Z,48.40
2018-02-24T13:24:37.134Z,47.44
2018-02-24T13:26:39.646Z,46.86
2018-02-24T13:28:42.124Z,46.93
2018-02-24T13:30:44.562Z,47.43
2018-02-24T13:32:47.171Z,47.83
2018-02-24T13:34:49.711Z,49.27
2018-02-24T13:36:52.231Z,48.18
2018-02-24T13:38:54.732Z,49.85
2018-02-24T13:40:57.269Z,49.19
2018-02-24T13:42:59.790Z,49.79
2018-02-24T13:45:02.338Z,48.90
2018-02-24T13:47:04.921Z,50.59
2018-02-24T13:49:07.520Z,50.11
2018-02-24T13:51:09.973Z,48.99
2018-02-24T13:53:12.454Z,49.60
2018-02-24T13:55:14.952Z,51.39
2018-02-24T13:57:17.490Z,51.38
2018-02-24T13:59:19.996Z,50.08
2018-02-24T14:01:22.498Z,50.62
2018-02-24T14:03:24.989Z,50.46
2018-02-24T14:05:27.459Z,51.80
2018-02-24T14:07:30.044Z,52.82
2018-02-24T14:09:32.535Z,52.88
2018-02-24T14:11:35.004Z,53.77
2018-02-24T14:15:46.159Z,52.72
2018-02-24T14:17:48.664Z,53.44
2018-02-24T14:19:51.258Z,52.90
2018-02-24T14:21:53.761Z,52.47
2018-02-24T14:23:56.221Z,51.41
2018-02-24T14:25:58.669Z,51.60
2018-02-24T14:28:01.184Z,51.79
2018-02-24T14:30:03.738Z,49.30
2018-02-24T14:32:06.262Z,47.67
2018-02-24T14:34:08.729Z,47.36
2018-02-24T14:36:11.180Z,48.36
2018-02-24T14:38:13.669Z,48.75
2018-02-24T14:40:16.158Z,47.63
2018-02-24T14:42:18.660Z,49.08
2018-02-24T14:44:21.195Z,49.53
2018-02-24T14:46:23.783Z,49.33
2018-02-24T14:48:26.271Z,49.60
2018-02-24T14:50:28.796Z,50.94
2018-02-24T14:52:31.325Z,49.92
2018-02-24T14:54:33.848Z,50.72
2018-02-24T14:56:36.370Z,50.80
2018-02-24T14:58:38.879Z,52.07
2018-02-24T15:00:41.429Z,53.03
2018-02-24T15:02:43.915Z,49.96
2018-02-24T15:04:46.519Z,50.09
2018-02-24T15:06:49.034Z,50.93
2018-02-24T15:08:51.479Z,52.02
2018-02-24T15:10:53.929Z,52.49
2018-02-24T15:12:56.459Z,50.49
2018-02-24T15:14:58.898Z,51.90
2018-02-24T15:17:01.449Z,51.62
2018-02-24T15:19:04.003Z,50.93
2018-02-24T15:21:06.493Z,52.46
2018-02-24T15:23:08.983Z,50.69
2018-02-24T15:25:11.536Z,50.34
2018-02-24T15:27:14.064Z,51.43
2018-02-24T15:29:16.588Z,50.11
2018-02-24T15:31:19.078Z,50.98
2018-02-24T15:33:22.526Z,49.73
2018-02-24T15:35:25.134Z,49.93
2018-02-24T15:37:27.635Z,51.43
2018-02-24T15:39:30.163Z,50.68
2018-02-24T15:41:32.698Z,49.90
2018-02-24T15:43:35.211Z,50.82
2018-02-24T15:45:37.730Z,51.59
2018-02-24T15:47:40.326Z,52.27
2018-02-24T15:49:42.814Z,51.40
2018-02-24T15:51:45.330Z,51.40
2018-02-24T15:53:47.854Z,52.31
2018-02-24T15:55:50.317Z,50.89
2018-02-24T15:57:52.841Z,51.92
2018-02-24T15:59:55.321Z,52.53
2018-02-24T16:01:57.854Z,53.49
2018-02-24T16:04:00.355Z,53.27
2018-02-24T16:06:02.976Z,54.74
2018-02-24T16:08:05.482Z,55.59
2018-02-24T16:10:07.994Z,54.43
2018-02-24T16:12:10.491Z,54.13
2018-02-24T16:14:13.153Z,54.03
2018-02-24T16:16:15.615Z,54.86
2018-02-24T16:18:18.212Z,53.74
2018-02-24T16:20:20.686Z,53.77
2018-02-24T16:22:23.182Z,54.56
2018-02-24T16:24:25.710Z,53.17
2018-02-24T16:26:28.239Z,55.31
2018-02-24T16:28:30.781Z,54.62
2018-02-24T16:30:33.355Z,54.16
2018-02-24T16:32:35.867Z,54.62
2018-02-24T16:34:38.393Z,53.06
2018-02-24T16:36:40.907Z,54.14
2018-02-24T16:38:43.449Z,53.28
2018-02-24T16:40:45.914Z,53.49
2018-02-24T16:42:48.362Z,54.16
2018-02-24T16:44:50.852Z,55.28
2018-02-24T16:46:53.309Z,54.07
2018-02-24T16:48:55.816Z,55.07
2018-02-24T16:50:58.410Z,53.20
2018-02-24T16:53:00.972Z,54.62
2018-02-24T16:55:03.446Z,53.26
2018-02-24T16:57:05.997Z,53.42
2018-02-24T16:59:08.473Z,53.92
2018-02-24T17:01:10.983Z,54.00
2018-02-24T17:03:13.570Z,54.77
2018-02-24T17:05:16.122Z,55.04
2018-02-24T17:07:18.632Z,55.24
2018-02-24T17:09:21.259Z,54.31
2018-02-24T17:11:23.790Z,54.41
2018-02-24T17:13:26.316Z,54.27
2018-02-24T17:15:28.762Z,54.67
2018-02-24T17:17:31.295Z,55.72
2018-02-24T17:19:33.821Z,55.16
2018-02-24T17:21:36.423Z,54.81
2018-02-24T17:23:38.924Z,55.87
2018-02-24T17:25:41.369Z,56.32
2018-02-24T17:27:43.846Z,54.98
2018-02-24T17:29:46.401Z,55.23
2018-02-24T17:31:48.867Z,55.39
2018-02-24T17:33:51.401Z,55.00
2018-02-24T17:35:53.923Z,55.54
2018-02-24T17:37:56.427Z,56.00
2018-02-24T17:39:59.022Z,56.59
2018-02-24T17:42:01.516Z,56.03
2018-02-24T17:44:04.003Z,56.23
2018-02-24T17:46:06.531Z,56.93
2018-02-24T17:48:09.133Z,56.99
2018-02-24T17:50:11.620Z,56.38
2018-02-24T17:52:14.078Z,57.34
2018-02-24T17:54:16.592Z,56.94
2018-02-24T17:56:19.109Z,56.42
2018-02-24T17:58:21.578Z,55.86
2018-02-24T18:00:24.065Z,55.49
2018-02-24T18:02:26.573Z,55.35
2018-02-24T18:04:29.042Z,55.87
2018-02-24T18:06:31.526Z,55.83
2018-02-24T18:08:34.022Z,55.80
2018-02-24T18:10:36.568Z,55.85
2018-02-24T18:12:39.051Z,55.79
2018-02-24T18:14:41.547Z,56.37
2018-02-24T18:16:44.048Z,56.97
2018-02-24T18:18:46.516Z,57.50
2018-02-24T18:20:49.035Z,57.58
2018-02-24T18:22:51.500Z,57.64
2018-02-24T18:24:53.965Z,57.43
2018-02-24T18:26:56.455Z,58.58
2018-02-24T18:28:58.986Z,58.80
2018-02-24T18:31:01.507Z,59.03
2018-02-24T18:33:04.033Z,59.07
2018-02-24T18:35:06.576Z,59.51
2018-02-24T18:37:09.143Z,60.25
2018-02-24T18:39:11.591Z,60.20
2018-02-24T18:41:14.037Z,59.51
2018-02-24T18:43:16.549Z,59.52
2018-02-24T18:45:19.071Z,59.94
2018-02-24T18:47:21.558Z,59.53
2018-02-24T18:49:24.027Z,60.64
2018-02-24T18:51:26.562Z,61.01
2018-02-24T18:53:29.071Z,59.13
2018-02-24T18:55:31.560Z,59.79
2018-02-24T18:57:34.088Z,59.70
2018-02-24T18:59:36.598Z,59.29
2018-02-24T19:01:39.076Z,60.53
2018-02-24T19:03:41.568Z,58.98
2018-02-24T19:05:44.179Z,59.79
2018-02-24T19:07:46.692Z,60.10
2018-02-24T19:09:49.267Z,59.61
2018-02-24T19:11:51.890Z,59.46
2018-02-24T19:13:54.486Z,60.10
2018-02-24T19:15:57.044Z,59.64
2018-02-24T19:17:59.649Z,60.26
2018-02-24T19:20:02.193Z,59.12
2018-02-24T19:22:04.697Z,59.76
2018-02-24T19:24:07.199Z,59.65
2018-02-24T19:26:09.736Z,59.62
2018-02-24T19:28:12.213Z,58.61
2018-02-24T19:30:14.711Z,59.06
2018-02-24T19:32:17.283Z,59.44
2018-02-24T19:34:19.792Z,59.17
2018-02-24T19:36:22.397Z,59.40
2018-02-24T19:38:24.901Z,59.79
2018-02-24T19:40:27.364Z,60.60
2018-02-24T19:42:30.087Z,60.38
2018-02-24T19:44:32.632Z,60.58
2018-02-24T19:46:35.147Z,60.41
2018-02-24T19:48:37.688Z,60.22
2018-02-24T19:50:40.160Z,60.41
2018-02-24T19:52:42.720Z,60.17
2018-02-24T19:54:45.329Z,60.22
2018-02-24T19:56:47.834Z,60.39
2018-02-24T19:58:50.370Z,60.39
2018-02-24T20:00:52.852Z,60.18
2018-02-24T20:02:55.337Z,59.41
2018-02-24T20:04:57.846Z,59.97
2018-02-24T20:07:00.359Z,60.45
2018-02-24T20:09:02.865Z,60.27
2018-02-24T20:11:05.367Z,60.74
2018-02-24T20:13:07.869Z,61.60
2018-02-24T20:15:10.467Z,61.06
2018-02-24T20:17:12.983Z,60.89
2018-02-24T20:19:15.652Z,60.73
2018-02-24T20:21:18.123Z,61.97
2018-02-24T20:23:20.662Z,61.67
2018-02-24T20:25:23.253Z,60.25
2018-02-24T20:27:25.707Z,59.99
2018-02-24T20:29:28.196Z,60.20
2018-02-24T20:31:30.743Z,60.82
2018-02-24T20:33:33.204Z,60.46
2018-02-24T20:35:35.675Z,60.60
2018-02-24T20:37:38.163Z,60.79
2018-02-24T20:39:40.664Z,61.48
2018-02-24T20:41:43.153Z,61.67
2018-02-24T20:43:45.671Z,61.54
2018-02-24T20:45:48.201Z,61.57
2018-02-24T20:47:50.679Z,61.78
2018-02-24T20:49:53.180Z,61.85
2018-02-24T20:51:55.668Z,61.44
2018-02-24T20:53:58.255Z,62.05
2018-02-24T20:56:00.718Z,61.92
2018-02-24T20:58:03.330Z,62.01
2018-02-24T21:00:05.849Z,62.21
2018-02-24T21:02:08.331Z,62.00
2018-02-24T21:04:11.139Z,61.20
2018-02-24T21:06:13.659Z,61.72
2018-02-24T21:08:16.223Z,62.31
2018-02-24T21:10:18.702Z,62.53
2018-02-24T21:12:21.211Z,62.39
2018-02-24T21:14:23.908Z,62.30
2018-02-24T21:16:26.398Z,62.65
2018-02-24T21:18:29.013Z,62.55
2018-02-24T21:20:31.519Z,61.96
2018-02-24T21:22:34.041Z,62.14
2018-02-24T21:24:36.560Z,62.17
2018-02-24T21:26:39.095Z,62.48
2018-02-24T21:28:41.647Z,63.09
2018-02-24T21:30:44.110Z,62.96
2018-02-24T21:32:46.640Z,63.63
2018-02-24T21:34:49.115Z,64.66
2018-02-24T21:36:51.620Z,64.39
2018-02-24T21:38:54.174Z,62.57
2018-02-24T21:40:56.641Z,61.68
2018-02-24T21:42:59.214Z,61.99
2018-02-24T21:45:01.744Z,62.74
2018-02-24T21:47:04.199Z,62.60
2018-02-24T21:49:06.736Z,63.06
2018-02-24T21:51:09.202Z,62.91
2018-02-24T21:53:11.785Z,63.05
2018-02-24T21:55:14.280Z,62.60
2018-02-24T21:57:16.769Z,61.57
2018-02-24T21:59:19.260Z,61.14
2018-02-24T22:01:21.743Z,61.36
2018-02-24T22:03:24.233Z,62.24
2018-02-24T22:05:26.842Z,61.57
2018-02-24T22:07:29.335Z,61.51
2018-02-24T22:09:31.838Z,61.32
2018-02-24T22:11:34.325Z,62.11
2018-02-24T22:13:36.784Z,60.57
2018-02-24T22:15:39.280Z,61.25
2018-02-24T22:17:41.710Z,60.56
2018-02-24T22:19:44.297Z,61.11
2018-02-24T22:21:46.841Z,61.67
2018-02-24T22:23:49.352Z,60.86
2018-02-24T22:25:51.810Z,61.87
2018-02-24T22:27:54.364Z,61.40
2018-02-24T22:29:56.845Z,60.35
2018-02-24T22:31:59.334Z,60.49
2018-02-24T22:34:01.822Z,61.09
2018-02-24T22:36:04.327Z,61.28
2018-02-24T22:38:06.832Z,61.92
2018-02-24T22:40:09.440Z,61.38
2018-02-24T22:42:11.944Z,61.81
2018-02-24T22:44:14.476Z,62.23
2018-02-24T22:46:17.020Z,61.45
2018-02-24T22:50:57.021Z,61.54
2018-02-24T22:52:59.576Z,61.09
2018-02-24T22:55:02.060Z,61.80
2018-02-24T22:57:04.637Z,61.37
2018-02-24T22:59:07.169Z,61.25
2018-02-24T23:01:09.631Z,61.73
2018-02-24T23:03:12.134Z,62.22
2018-02-24T23:05:14.660Z,61.38
2018-02-24T23:07:17.199Z,60.73
2018-02-24T23:09:19.717Z,62.21
2018-02-24T23:11:22.181Z,62.41
2018-02-24T23:13:24.727Z,61.95
2018-02-24T23:15:27.184Z,61.64
2018-02-24T23:17:29.669Z,61.93
2018-02-24T23:19:32.157Z,62.57
2018-02-24T23:21:34.623Z,62.23
2018-02-24T23:23:37.076Z,63.24
2018-02-24T23:25:39.772Z,62.52
2018-02-24T23:27:42.211Z,63.32
2018-02-24T23:29:44.676Z,62.57
2018-02-24T23:31:47.162Z,62.70
2018-02-24T23:33:49.683Z,63.21
2018-02-24T23:35:52.114Z,63.27
2018-02-24T23:37:54.645Z,63.40
2018-02-24T23:39:57.110Z,63.17
2018-02-24T23:41:59.629Z,63.75
2018-02-24T23:44:02.124Z,63.06
2018-02-24T23:46:04.583Z,63.85
2018-02-24T23:48:07.106Z,64.02
2018-02-24T23:50:09.609Z,64.44
2018-02-24T23:52:12.081Z,64.37
2018-02-24T23:54:14.527Z,64.30
2018-02-24T23:56:17.000Z,64.40
2018-02-24T23:58:19.506Z,64.54
